Time;durP1;ratioP1;P1;durP2;ratioP2;P2;SDS_P1;SDS_P2;PMS_P1;PMS_P2;Temp;Humidity;BMP_temperature;BMP_pressure;BME280_temperature;BME280_humidity;BME280_pressure;Samples;Min_cycle;Max_cycle;Signal;HPM_P1;HPM_P2
2022/07/27 00:01:24;;;;;;;5.40;1.13;;;;;;;17.36;39.54;101048.22;5016195;28;20581;-70
2022/07/27 00:03:50;;;;;;;5.18;1.08;;;;;;;17.38;39.69;101040.75;5012327;28;20406;-68
2022/07/27 00:06:17;;;;;;;7.30;1.30;;;;;;;17.27;39.71;101041.28;5010716;28;20052;-68
2022/07/27 00:08:43;;;;;;;10.40;3.30;;;;;;;17.18;39.34;101043.28;5003711;28;20132;-70
2022/07/27 00:11:10;;;;;;;10.13;2.53;;;;;;;17.12;39.12;101047.59;5012059;28;20049;-70
2022/07/27 00:13:38;;;;;;;5.70;1.70;;;;;;;17.16;39.67;101047.19;5011195;28;20459;-69
2022/07/27 00:16:05;;;;;;;5.93;1.38;;;;;;;17.15;39.45;101051.78;5009595;28;20454;-69
2022/07/27 00:18:31;;;;;;;8.85;1.55;;;;;;;17.13;39.28;101054.72;5010923;28;20079;-69
2022/07/27 00:20:58;;;;;;;7.10;1.27;;;;;;;17.13;39.24;101059.28;5011143;28;20056;-70
2022/07/27 00:23:25;;;;;;;12.95;1.60;;;;;;;17.09;39.84;101052.56;5011173;28;20104;-70
2022/07/27 00:25:51;;;;;;;14.10;2.45;;;;;;;17.01;39.61;101058.97;5010868;28;20129;-70
2022/07/27 00:28:18;;;;;;;7.38;1.98;;;;;;;17.01;39.63;101058.97;5010261;28;20049;-69
2022/07/27 00:30:45;;;;;;;6.03;1.42;;;;;;;16.98;40.02;101056.63;5011627;28;20128;-69
2022/07/27 00:33:12;;;;;;;5.32;1.63;;;;;;;16.93;39.50;101047.44;5011094;28;20137;-69
2022/07/27 00:35:43;;;;;;;9.43;1.90;;;;;;;16.91;39.80;101053.03;5010711;28;20108;-69
2022/07/27 00:38:09;;;;;;;9.02;1.75;;;;;;;16.85;39.96;101034.84;5011215;28;20070;-69
2022/07/27 00:40:36;;;;;;;8.73;1.70;;;;;;;16.82;40.22;101036.09;5011290;28;20557;-69
2022/07/27 00:43:02;;;;;;;9.65;1.40;;;;;;;16.76;40.42;101038.72;5011110;28;20069;-69
2022/07/27 00:45:29;;;;;;;9.10;1.42;;;;;;;16.74;40.39;101036.19;5010915;28;20132;-69
2022/07/27 00:47:55;;;;;;;8.15;1.67;;;;;;;16.64;40.64;101036.53;5010510;28;20517;-69
2022/07/27 00:50:22;;;;;;;8.98;1.42;;;;;;;16.63;41.18;101039.41;5010760;28;20494;-69
2022/07/27 00:52:49;;;;;;;7.15;1.58;;;;;;;16.61;41.06;101038.78;5010762;28;20069;-69
2022/07/27 00:55:16;;;;;;;8.93;1.42;;;;;;;16.64;40.74;101047.38;5005368;28;20486;-69
2022/07/27 00:57:42;;;;;;;11.52;1.33;;;;;;;16.54;41.10;101038.72;5009665;28;20065;-68
2022/07/27 01:00:24;;;;;;;12.65;1.25;;;;;;;16.51;41.18;101044.50;5010515;28;20110;-70
2022/07/27 01:02:51;;;;;;;6.63;1.58;;;;;;;16.55;41.02;101040.38;5010315;28;20120;-69
2022/07/27 01:11:52;;;;;;;13.35;1.92;;;;;;;16.41;41.59;101049.38;5013935;28;20099;-69
2022/07/27 01:14:19;;;;;;;9.80;1.40;;;;;;;16.38;41.48;101044.31;5014882;28;20499;-68
2022/07/27 01:16:53;;;;;;;10.27;1.65;;;;;;;16.34;41.48;101053.88;5013864;28;20050;-69
2022/07/27 01:19:20;;;;;;;6.20;1.52;;;;;;;16.35;41.82;101050.13;5013931;28;20058;-68
2022/07/27 01:21:47;;;;;;;6.70;1.30;;;;;;;16.29;42.17;101048.16;5014434;28;20062;-70
2022/07/27 01:24:13;;;;;;;6.38;1.38;;;;;;;16.23;41.67;101055.19;5014905;28;20070;-70
2022/07/27 01:26:40;;;;;;;10.05;1.50;;;;;;;16.19;42.31;101046.63;5013702;28;20042;-68
2022/07/27 01:29:06;;;;;;;11.05;1.90;;;;;;;16.06;42.54;101057.28;5014268;28;20124;-68
2022/07/27 01:31:33;;;;;;;7.15;1.55;;;;;;;16.11;42.71;101044.00;5013824;28;20441;-69
2022/07/27 01:34:00;;;;;;;8.27;1.20;;;;;;;16.03;42.87;101057.66;5014702;28;20060;-68
2022/07/27 01:36:27;;;;;;;10.70;1.92;;;;;;;15.99;42.81;101061.75;5014142;28;20137;-69
2022/07/27 01:38:54;;;;;;;8.05;1.80;;;;;;;15.99;42.92;101064.47;5010800;28;20494;-69
2022/07/27 01:41:22;;;;;;;12.52;1.50;;;;;;;15.97;43.13;101069.22;5013805;28;20054;-68
2022/07/27 01:43:49;;;;;;;9.00;1.63;;;;;;;15.91;42.92;101068.09;5013614;28;20473;-70
2022/07/27 01:46:15;;;;;;;5.63;1.50;;;;;;;15.93;42.51;101065.22;5014069;28;20069;-70
2022/07/27 01:48:42;;;;;;;10.10;1.85;;;;;;;15.84;43.05;101060.91;5014003;28;20069;-70
2022/07/27 01:51:08;;;;;;;9.23;1.30;;;;;;;15.80;43.36;101055.03;5014448;28;20451;-70
2022/07/27 01:53:35;;;;;;;4.22;1.40;;;;;;;15.78;44.14;101058.94;5008681;28;20137;-70
2022/07/27 01:56:01;;;;;;;6.72;1.58;;;;;;;15.74;43.95;101063.88;5010664;28;20045;-68
2022/07/27 01:58:28;;;;;;;8.70;1.30;;;;;;;15.69;43.82;101064.44;5013906;28;20053;-69
2022/07/27 02:00:55;;;;;;;7.30;1.98;;;;;;;15.65;43.73;101065.84;5013913;28;20133;-68
2022/07/27 02:03:21;;;;;;;7.45;1.35;;;;;;;15.59;43.77;101060.31;5013432;28;20404;-68
2022/07/27 02:05:48;;;;;;;8.07;1.50;;;;;;;15.55;43.86;101064.41;5009718;28;20066;-69
2022/07/27 02:08:14;;;;;;;9.02;1.92;;;;;;;15.50;44.36;101051.47;5013903;28;20128;-68
2022/07/27 02:12:34;;;;;;;5.88;1.60;;;;;;;15.49;44.47;101055.16;5013146;28;20512;-68
2022/07/27 02:13:27;;;;;;;12.57;1.70;;;;;;;15.44;44.61;101047.63;5013304;28;20442;-68
2022/07/27 02:15:55;;;;;;;6.93;1.50;;;;;;;15.51;44.26;101046.88;5012186;28;20132;-68
2022/07/27 02:18:22;;;;;;;6.75;1.40;;;;;;;15.55;44.31;101064.41;5012643;28;20097;-68
2022/07/27 02:21:03;;;;;;;9.30;1.70;;;;;;;15.49;44.30;101060.56;5013751;28;20046;-68
2022/07/27 02:23:30;;;;;;;5.68;1.50;;;;;;;15.41;44.44;101060.66;5011758;28;20520;-68
2022/07/27 02:25:57;;;;;;;17.35;2.10;;;;;;;15.41;44.37;101064.19;5012403;28;20544;-68
2022/07/27 02:28:24;;;;;;;8.55;1.75;;;;;;;15.27;45.28;101061.47;5013227;28;20553;-68
2022/07/27 02:30:50;;;;;;;10.50;1.80;;;;;;;15.27;45.23;101072.28;5012801;28;20045;-68
2022/07/27 02:33:17;;;;;;;8.82;1.60;;;;;;;15.23;45.68;101061.00;5013147;28;20134;-68
2022/07/27 02:35:43;;;;;;;11.13;1.92;;;;;;;15.20;45.83;101075.72;5012110;28;20053;-68
2022/07/27 02:38:10;;;;;;;7.25;1.77;;;;;;;15.22;45.55;101079.09;5013618;28;20073;-68
2022/07/27 02:40:36;;;;;;;5.22;1.23;;;;;;;15.15;46.07;101079.97;5013768;28;20061;-68
2022/07/27 02:43:03;;;;;;;6.55;1.33;;;;;;;15.04;46.22;101077.72;5012907;28;20046;-68
2022/07/27 02:45:29;;;;;;;11.90;2.40;;;;;;;15.05;46.20;101080.25;5012377;28;20498;-68
2022/07/27 02:47:56;;;;;;;7.55;1.40;;;;;;;15.02;46.21;101077.91;5012548;28;20052;-69
2022/07/27 02:50:23;;;;;;;8.98;1.60;;;;;;;14.91;46.42;101075.59;5012633;28;20069;-68
2022/07/27 02:52:49;;;;;;;15.88;1.83;;;;;;;14.89;46.77;101077.66;5011318;28;20128;-68
2022/07/27 02:55:16;;;;;;;6.10;1.30;;;;;;;14.87;46.79;101067.00;5013228;28;20072;-68
2022/07/27 02:57:42;;;;;;;7.80;1.27;;;;;;;14.80;46.58;101062.53;5012838;28;20128;-68
2022/07/27 03:00:12;;;;;;;7.10;1.58;;;;;;;14.68;47.23;101068.31;5012819;28;20073;-68
2022/07/27 03:02:39;;;;;;;8.18;1.55;;;;;;;14.73;47.05;101062.41;5013604;28;20041;-68
2022/07/27 03:05:07;;;;;;;7.63;1.77;;;;;;;14.68;47.14;101073.72;5011971;28;20065;-68
2022/07/27 03:07:33;;;;;;;6.22;1.10;;;;;;;14.71;47.16;101075.22;5012907;28;20061;-68
2022/07/27 03:10:00;;;;;;;10.10;2.13;;;;;;;14.64;47.32;101080.50;5012621;28;20379;-68
2022/07/27 03:12:27;;;;;;;7.07;1.70;;;;;;;14.56;47.57;101074.28;5012042;28;20189;-68
2022/07/27 03:14:55;;;;;;;12.68;2.00;;;;;;;14.63;47.35;101069.84;5012408;28;20052;-69
2022/07/27 03:17:21;;;;;;;6.95;1.65;;;;;;;14.51;47.46;101072.13;5011970;28;20128;-68
2022/07/27 03:19:48;;;;;;;11.10;1.80;;;;;;;14.42;47.76;101074.00;5012324;28;20470;-69
2022/07/27 03:22:15;;;;;;;9.23;1.77;;;;;;;14.41;48.03;101080.44;5010304;28;20073;-69
2022/07/27 03:24:42;;;;;;;4.90;1.20;;;;;;;14.43;47.75;101077.59;5012975;28;20056;-70
2022/07/27 03:27:08;;;;;;;7.25;1.80;;;;;;;14.38;48.10;101077.25;5012019;28;20081;-69
2022/07/27 03:29:35;;;;;;;9.80;1.80;;;;;;;14.38;48.25;101080.78;5012246;28;20066;-69
2022/07/27 03:32:01;;;;;;;10.70;1.60;;;;;;;14.43;48.34;101083.81;5012242;28;20128;-69
2022/07/27 03:34:28;;;;;;;9.13;1.90;;;;;;;14.49;48.09;101076.84;5011236;28;20479;-69
2022/07/27 03:36:54;;;;;;;9.50;1.80;;;;;;;14.43;48.30;101086.53;5012803;28;20069;-69
2022/07/27 03:39:21;;;;;;;7.20;1.98;;;;;;;14.42;48.40;101089.38;5011905;28;20046;-69
2022/07/27 03:41:47;;;;;;;8.55;1.75;;;;;;;14.48;48.39;101094.06;5013115;28;20132;-69
2022/07/27 03:44:14;;;;;;;8.10;1.63;;;;;;;14.45;48.48;101100.66;5012079;28;20129;-69
2022/07/27 03:46:41;;;;;;;9.63;1.92;;;;;;;14.45;48.68;101091.72;5013021;28;20045;-69
2022/07/27 03:49:07;;;;;;;11.40;2.33;;;;;;;14.44;48.57;101087.34;5006675;28;20510;-69
2022/07/27 03:51:41;;;;;;;5.57;1.23;;;;;;;14.46;48.63;101098.78;5025719;28;20049;-69
2022/07/27 03:54:07;;;;;;;12.50;1.85;;;;;;;14.42;48.67;101092.06;5013021;28;20115;-69
2022/07/27 03:56:34;;;;;;;7.68;1.55;;;;;;;14.40;48.97;101084.16;5012346;28;20132;-69
2022/07/27 03:59:01;;;;;;;8.52;1.70;;;;;;;14.44;48.87;101095.44;5011891;28;20038;-69
2022/07/27 04:01:27;;;;;;;10.18;1.85;;;;;;;14.37;48.87;101089.09;5012541;28;20128;-69
2022/07/27 04:03:54;;;;;;;9.32;1.98;;;;;;;14.40;48.92;101091.44;5012099;28;20069;-69
2022/07/27 04:06:21;;;;;;;10.25;1.60;;;;;;;14.40;48.96;101086.03;5011294;28;20050;-69
2022/07/27 04:08:47;;;;;;;8.48;2.08;;;;;;;14.41;49.18;101087.69;5011226;28;20073;-69
2022/07/27 04:11:16;;;;;;;6.70;1.55;;;;;;;14.41;49.14;101088.53;5012138;28;20054;-69
2022/07/27 04:13:47;;;;;;;11.70;1.48;;;;;;;14.44;49.04;101088.19;5012424;28;20532;-69
2022/07/27 04:16:13;;;;;;;10.75;1.98;;;;;;;14.40;49.25;101092.25;5011916;28;20061;-69
2022/07/27 04:18:40;;;;;;;10.60;1.50;;;;;;;14.41;49.39;101093.09;5011289;28;20168;-69
2022/07/27 04:21:07;;;;;;;6.80;1.75;;;;;;;14.36;49.37;101090.94;5010500;28;20084;-69
2022/07/27 04:23:34;;;;;;;9.80;1.98;;;;;;;14.35;49.17;101083.00;5011155;28;20494;-68
2022/07/27 04:26:03;;;;;;;8.75;1.55;;;;;;;14.41;49.25;101077.75;5010080;28;20037;-68
2022/07/27 04:28:31;;;;;;;10.13;1.40;;;;;;;14.34;49.22;101084.88;5009815;28;20062;-69
2022/07/27 04:30:58;;;;;;;5.75;1.60;;;;;;;14.36;49.46;101082.84;5009815;28;20049;-69
2022/07/27 04:33:25;;;;;;;9.77;1.52;;;;;;;14.40;49.07;101078.78;5001002;28;20529;-67
2022/07/27 04:35:51;;;;;;;7.60;1.25;;;;;;;14.50;49.17;101074.00;5023078;28;20069;-67
2022/07/27 04:38:18;;;;;;;9.10;1.58;;;;;;;14.52;48.81;101068.41;5009535;28;20056;-67
2022/07/27 04:40:44;;;;;;;9.40;1.58;;;;;;;14.51;48.56;101066.72;5011390;28;20121;-70
2022/07/27 04:43:11;;;;;;;9.40;1.48;;;;;;;14.49;48.61;101074.16;5010831;28;20072;-68
2022/07/27 04:45:37;;;;;;;10.55;2.25;;;;;;;14.41;48.92;101071.50;5010797;28;20120;-68
2022/07/27 04:48:07;;;;;;;8.65;1.65;;;;;;;14.44;48.51;101074.69;5010813;28;20383;-68
2022/07/27 04:50:45;;;;;;;11.60;2.15;;;;;;;14.62;48.21;101078.97;5010679;28;20136;-68
2022/07/27 04:53:13;;;;;;;8.00;1.85;;;;;;;14.72;47.98;101075.06;5011585;28;20129;-68
2022/07/27 04:55:44;;;;;;;11.10;1.63;;;;;;;14.74;47.97;101073.03;5010716;28;20505;-69
2022/07/27 04:58:12;;;;;;;8.00;1.65;;;;;;;14.85;47.45;101076.34;5010085;28;20556;-68
2022/07/27 05:00:39;;;;;;;9.57;1.50;;;;;;;14.98;47.45;101071.16;5011627;28;20136;-68
2022/07/27 05:03:06;;;;;;;14.43;2.20;;;;;;;14.99;46.99;101087.19;5009618;28;20635;-68
2022/07/27 05:05:32;;;;;;;13.40;3.00;;;;;;;15.11;46.80;101084.91;5010022;28;20524;-69
2022/07/27 05:07:59;;;;;;;13.02;4.88;;;;;;;15.18;46.72;101093.97;5009492;28;20080;-68
2022/07/27 05:10:25;;;;;;;18.23;6.60;;;;;;;15.21;46.66;101095.47;5010474;28;20125;-68
2022/07/27 05:12:52;;;;;;;17.35;3.78;;;;;;;15.38;46.19;101088.91;5006464;28;20128;-68
2022/07/27 05:15:19;;;;;;;8.48;2.03;;;;;;;15.32;46.57;101100.44;5021279;28;20069;-68
2022/07/27 05:17:46;;;;;;;8.13;1.58;;;;;;;15.38;46.39;101099.72;5010612;28;20129;-68
2022/07/27 05:20:13;;;;;;;9.68;1.73;;;;;;;15.42;45.87;101102.88;5011570;28;20136;-68
2022/07/27 05:22:39;;;;;;;10.13;2.13;;;;;;;15.41;46.44;101098.50;5010036;28;20449;-68
2022/07/27 05:25:07;;;;;;;12.93;2.05;;;;;;;15.40;46.23;101104.94;5010195;28;20085;-68
2022/07/27 05:27:34;;;;;;;12.30;2.17;;;;;;;15.48;46.14;101099.47;5007492;28;20137;-68
2022/07/27 05:30:05;;;;;;;14.40;2.85;;;;;;;15.48;46.25;101107.56;5019578;28;20465;-68
2022/07/27 05:32:31;;;;;;;5.90;1.88;;;;;;;15.41;46.91;101112.03;5010170;28;20128;-68
2022/07/27 05:34:58;;;;;;;14.30;2.75;;;;;;;15.45;46.49;101116.03;5009881;28;20073;-68
2022/07/27 05:37:24;;;;;;;10.27;2.00;;;;;;;15.56;46.00;101118.31;5009639;28;20129;-68
2022/07/27 05:39:51;;;;;;;7.00;1.90;;;;;;;15.51;45.84;101117.19;5010587;28;20132;-69
2022/07/27 05:42:17;;;;;;;11.32;2.08;;;;;;;15.49;45.99;101123.59;5008830;28;20080;-68
2022/07/27 05:44:44;;;;;;;7.05;1.83;;;;;;;15.64;46.38;101125.53;5017686;28;20056;-68
2022/07/27 05:47:10;;;;;;;6.32;2.00;;;;;;;15.80;46.11;101128.06;5009505;28;20444;-68
2022/07/27 05:49:37;;;;;;;9.25;2.22;;;;;;;15.66;46.01;101143.25;5010766;28;20088;-68
2022/07/27 05:52:04;;;;;;;12.52;1.92;;;;;;;15.63;46.49;101145.47;5013072;28;20472;-68
2022/07/27 05:54:30;;;;;;;6.30;1.88;;;;;;;15.62;46.92;101141.06;5013436;28;20461;-69
2022/07/27 05:56:57;;;;;;;6.18;1.48;;;;;;;15.62;46.53;101146.50;5012987;28;20484;-70
2022/07/27 05:59:23;;;;;;;7.40;1.90;;;;;;;15.65;47.08;101148.88;5013046;28;20128;-68
2022/07/27 06:01:50;;;;;;;7.43;1.63;;;;;;;15.73;46.72;101142.53;5013928;28;20568;-70
2022/07/27 06:04:17;;;;;;;10.82;1.50;;;;;;;15.71;46.85;101140.03;5013541;28;20073;-69
2022/07/27 06:09:29;;;;;;;8.70;1.60;;;;;;;15.85;46.74;101146.47;5019186;28;20041;-68
2022/07/27 06:11:56;;;;;;;14.45;2.35;;;;;;;15.81;46.91;101140.59;5013321;28;20145;-68
2022/07/27 06:14:22;;;;;;;10.30;2.10;;;;;;;15.78;46.72;101150.91;5013072;28;20546;-68
2022/07/27 06:16:49;;;;;;;14.20;2.15;;;;;;;15.92;46.57;101147.41;5012243;28;20065;-68
2022/07/27 06:19:15;;;;;;;12.50;1.85;;;;;;;15.94;46.63;101145.34;5013228;28;20054;-68
2022/07/27 06:21:42;;;;;;;10.75;1.58;;;;;;;15.98;46.58;101140.41;5012972;28;20054;-68
2022/07/27 06:24:08;;;;;;;6.72;1.42;;;;;;;16.07;46.69;101139.31;5012873;28;20465;-68
2022/07/27 06:26:35;;;;;;;13.20;1.80;;;;;;;16.13;46.23;101133.97;5013156;28;20136;-68
2022/07/27 06:29:01;;;;;;;10.50;2.63;;;;;;;16.19;45.63;101127.81;5013715;28;20441;-67
2022/07/27 06:31:35;;;;;;;11.18;1.90;;;;;;;16.29;45.46;101132.94;5013760;28;20070;-67
2022/07/27 06:34:02;;;;;;;10.60;1.75;;;;;;;16.29;45.79;101137.50;5015098;28;20052;-64
2022/07/27 06:36:33;;;;;;;8.82;1.73;;;;;;;16.74;44.30;101144.56;5014042;28;20049;-64
2022/07/27 06:39:00;;;;;;;16.20;2.33;;;;;;;16.73;44.54;101136.63;5013573;28;20153;-64
2022/07/27 06:41:26;;;;;;;14.63;1.77;;;;;;;16.78;43.81;101140.47;5012610;28;20132;-65
2022/07/27 06:43:53;;;;;;;11.70;3.05;;;;;;;17.01;43.46;101132.16;5012807;28;20129;-65
2022/07/27 06:46:19;;;;;;;12.82;4.32;;;;;;;17.30;42.92;101144.75;5013771;28;20145;-65
2022/07/27 06:48:46;;;;;;;13.77;2.67;;;;;;;17.26;42.65;101145.31;5013651;28;20482;-64
2022/07/27 06:51:13;;;;;;;7.10;1.58;;;;;;;17.33;42.69;101149.75;5013554;28;20486;-63
2022/07/27 06:53:40;;;;;;;10.00;1.63;;;;;;;17.38;41.98;101143.81;5013078;28;20103;-64
2022/07/27 06:56:07;;;;;;;9.10;1.95;;;;;;;17.47;41.28;101147.22;5013182;28;20074;-65
2022/07/27 06:58:36;;;;;;;14.10;2.22;;;;;;;17.54;41.65;101151.66;5012799;28;20042;-64
2022/07/27 07:01:03;;;;;;;7.75;1.88;;;;;;;17.66;41.39;101157.41;5014119;28;20437;-63
2022/07/27 07:03:30;;;;;;;11.55;2.13;;;;;;;17.82;41.13;101161.69;5013386;28;20054;-63
2022/07/27 07:05:57;;;;;;;11.75;1.85;;;;;;;17.88;41.36;101149.19;5012460;28;20041;-64
2022/07/27 07:08:23;;;;;;;7.63;1.88;;;;;;;18.11;40.68;101155.22;5010927;28;20061;-65
2022/07/27 07:10:50;;;;;;;7.30;1.50;;;;;;;18.25;39.73;101157.00;5012212;28;20050;-63
2022/07/27 07:13:16;;;;;;;7.40;1.25;;;;;;;18.17;39.69;101159.88;5013959;28;20077;-65
2022/07/27 07:15:43;;;;;;;6.38;1.10;;;;;;;18.15;39.59;101155.69;5011492;28;20062;-65
2022/07/27 07:18:11;;;;;;;14.30;1.95;;;;;;;17.98;39.84;101150.53;5013402;28;20089;-65
2022/07/27 07:20:39;;;;;;;13.20;2.63;;;;;;;18.24;39.56;101154.50;5013182;28;20049;-65
2022/07/27 07:23:06;;;;;;;9.63;1.70;;;;;;;18.40;39.28;101156.84;5012661;28;20065;-65
2022/07/27 07:25:33;;;;;;;12.75;1.45;;;;;;;18.60;38.86;101159.66;5012661;28;20482;-64
2022/07/27 07:28:01;;;;;;;8.15;1.63;;;;;;;18.73;38.54;101158.88;5011056;28;20041;-63
2022/07/27 07:30:28;;;;;;;10.35;1.65;;;;;;;18.76;38.35;101161.19;5011262;28;20072;-64
2022/07/27 07:32:55;;;;;;;14.13;1.70;;;;;;;19.06;37.83;101163.59;5018452;28;20105;-65
2022/07/27 07:35:22;;;;;;;14.00;1.50;;;;;;;19.23;37.28;101167.63;5012875;28;20050;-65
2022/07/27 07:37:48;;;;;;;9.63;1.52;;;;;;;19.35;37.16;101168.69;5011903;28;20092;-65
2022/07/27 07:40:16;;;;;;;5.07;1.23;;;;;;;19.45;36.93;101163.69;5011971;28;20142;-64
2022/07/27 07:43:04;;;;;;;9.32;1.48;;;;;;;19.26;36.88;101167.19;5008031;28;20052;-64
2022/07/27 07:45:34;;;;;;;11.82;1.70;;;;;;;19.49;36.57;101162.22;5021569;28;20053;-64
2022/07/27 07:48:00;;;;;;;7.28;1.83;;;;;;;19.38;36.83;101165.56;5010809;28;20560;-64
2022/07/27 07:50:27;;;;;;;5.45;1.30;;;;;;;19.38;36.35;101167.41;5011422;28;20208;-65
2022/07/27 07:52:54;;;;;;;7.82;1.30;;;;;;;19.34;36.57;101161.56;5011750;28;20148;-64
2022/07/27 07:55:26;;;;;;;5.88;1.52;;;;;;;19.40;36.68;101160.72;5011378;28;20484;-65
2022/07/27 07:57:54;;;;;;;9.88;1.83;;;;;;;19.42;37.21;101158.66;5009673;28;20045;-65
2022/07/27 08:00:22;;;;;;;4.03;1.27;;;;;;;19.62;35.60;101158.66;5017408;28;20045;-65
2022/07/27 08:02:52;;;;;;;5.60;1.33;;;;;;;19.48;36.00;101160.53;5012342;28;20049;-67
2022/07/27 08:05:20;;;;;;;8.27;1.40;;;;;;;19.62;35.56;101163.25;5012264;28;20494;-65
2022/07/27 08:07:48;;;;;;;8.70;1.33;;;;;;;19.31;36.14;101172.00;5011351;28;20434;-65
2022/07/27 08:10:16;;;;;;;7.55;1.30;;;;;;;19.49;35.41;101169.53;5010763;28;20066;-65
2022/07/27 08:12:46;;;;;;;7.18;1.40;;;;;;;19.34;36.07;101175.16;5009012;28;20127;-65
2022/07/27 08:15:14;;;;;;;3.72;1.40;;;;;;;18.73;36.87;101170.59;5011021;28;20050;-65
2022/07/27 08:17:44;;;;;;;6.07;1.00;;;;;;;18.88;37.34;101178.59;5010953;28;20049;-65
2022/07/27 08:20:12;;;;;;;8.23;1.17;;;;;;;18.82;37.38;101173.94;5011623;28;20482;-65
2022/07/27 08:22:39;;;;;;;10.13;1.65;;;;;;;18.85;37.05;101176.28;5006512;28;20050;-65
2022/07/27 08:25:07;;;;;;;8.60;2.42;;;;;;;18.75;37.14;101173.94;5010628;28;20494;-65
2022/07/27 08:27:34;;;;;;;11.95;1.77;;;;;;;18.62;37.54;101176.63;5011121;28;20478;-65
2022/07/27 08:30:07;;;;;;;8.10;1.35;;;;;;;18.66;37.75;101174.34;5010669;28;20050;-65
2022/07/27 08:32:51;;;;;;;8.15;2.35;;;;;;;18.68;37.04;101181.22;5010910;28;20048;-65
2022/07/27 08:35:18;;;;;;;6.60;1.52;;;;;;;18.65;37.34;101178.06;5011641;28;20226;-65
2022/07/27 08:37:45;;;;;;;11.77;1.45;;;;;;;18.60;37.50;101178.69;5011095;28;20056;-65
2022/07/27 08:40:13;;;;;;;8.23;1.55;;;;;;;18.55;37.16;101187.47;5011007;28;20199;-65
2022/07/27 08:43:00;;;;;;;8.13;1.38;;;;;;;18.66;36.47;101196.06;5011234;28;20052;-65
2022/07/27 08:45:29;;;;;;;5.85;1.13;;;;;;;19.00;35.41;101182.44;5011663;28;20503;-65
2022/07/27 08:47:56;;;;;;;5.32;1.42;;;;;;;19.31;35.69;101191.06;5010293;28;20402;-65
2022/07/27 08:50:23;;;;;;;10.52;1.35;;;;;;;19.39;35.79;101185.44;5010936;28;20080;-65
2022/07/27 08:53:03;;;;;;;13.60;1.55;;;;;;;19.47;34.69;101193.38;5011660;28;20092;-66
2022/07/27 08:55:33;;;;;;;8.07;1.52;;;;;;;19.14;33.95;101185.16;5011508;28;20108;-65
2022/07/27 08:58:01;;;;;;;2.55;1.27;;;;;;;19.26;34.16;101189.78;5011272;28;20084;-65
2022/07/27 09:00:30;;;;;;;5.13;0.88;;;;;;;18.62;35.35;101189.34;5011687;28;20076;-65
2022/07/27 09:02:57;;;;;;;5.65;1.08;;;;;;;18.77;35.51;101192.78;5011606;28;20069;-65
2022/07/27 09:05:24;;;;;;;10.57;1.27;;;;;;;18.93;35.24;101197.88;5010965;28;20543;-65
2022/07/27 09:08:14;;;;;;;5.97;1.48;;;;;;;19.16;35.39;101194.78;5005793;28;20042;-65
2022/07/27 09:10:41;;;;;;;8.98;1.33;;;;;;;19.58;34.73;101189.22;5011633;28;20457;-65
2022/07/27 09:13:23;;;;;;;4.85;1.17;;;;;;;19.93;33.82;101190.72;5011003;28;20461;-65
2022/07/27 09:15:55;;;;;;;3.17;1.30;;;;;;;20.29;33.45;101178.50;5011179;28;20092;-65
2022/07/27 09:18:41;;;;;;;5.72;1.40;;;;;;;20.05;33.27;101190.91;5010595;28;21160;-65
2022/07/27 09:21:12;;;;;;;6.07;1.70;;;;;;;20.39;31.99;101197.97;5008122;28;20049;-65
2022/07/27 09:23:45;;;;;;;3.65;1.30;;;;;;;21.22;30.38;101190.94;5009841;28;20066;-65
2022/07/27 09:26:25;;;;;;;12.02;2.58;;;;;;;22.01;29.50;101186.75;5012550;28;20049;-65
2022/07/27 09:29:13;;;;;;;5.10;1.10;;;;;;;21.82;29.01;101186.72;5014321;28;20433;-65
2022/07/27 09:31:46;;;;;;;3.88;0.90;;;;;;;21.54;29.82;101175.38;5014569;28;20060;-65
2022/07/27 09:34:27;;;;;;;6.15;1.55;;;;;;;20.68;30.94;101184.88;5014170;28;20104;-65
2022/07/27 09:36:56;;;;;;;4.43;1.10;;;;;;;20.73;31.43;101184.22;5014075;28;20046;-64
2022/07/27 09:39:25;;;;;;;6.20;1.40;;;;;;;20.59;31.50;101186.16;5014009;28;20049;-64
2022/07/27 09:41:55;;;;;;;3.22;0.98;;;;;;;20.20;32.82;101188.75;5012904;28;20412;-64
2022/07/27 09:44:36;;;;;;;7.97;1.52;;;;;;;19.92;33.00;101186.28;5014827;28;20049;-64
2022/07/27 09:47:27;;;;;;;5.15;1.25;;;;;;;19.52;33.61;101190.03;5013960;28;20046;-64
2022/07/27 09:50:26;;;;;;;9.20;1.60;;;;;;;19.58;34.63;101194.66;5012630;28;20100;-64
2022/07/27 09:53:20;;;;;;;7.78;1.35;;;;;;;19.37;34.82;101188.34;5022389;28;20124;-65
2022/07/27 09:56:12;;;;;;;4.72;1.17;;;;;;;19.54;34.52;101193.41;5014608;28;20041;-64
2022/07/27 09:58:39;;;;;;;7.50;1.45;;;;;;;19.78;34.43;101189.25;5013883;28;20081;-64
2022/07/27 10:01:08;;;;;;;9.30;1.40;;;;;;;19.85;34.01;101192.81;5014309;28;20469;-64
2022/07/27 10:03:35;;;;;;;5.85;1.23;;;;;;;19.98;34.07;101197.41;5013296;28;20046;-65
2022/07/27 10:06:02;;;;;;;5.07;1.30;;;;;;;20.18;34.27;101184.59;5013598;28;20077;-65
2022/07/27 10:08:30;;;;;;;7.00;1.40;;;;;;;20.63;32.84;101187.44;5014225;28;20050;-66
2022/07/27 10:10:57;;;;;;;6.32;1.23;;;;;;;20.64;32.90;101186.38;5013588;28;20065;-66
2022/07/27 10:13:26;;;;;;;5.38;1.33;;;;;;;20.64;32.45;101181.75;5012471;28;20041;-64
2022/07/27 10:15:54;;;;;;;4.43;1.13;;;;;;;20.65;32.74;101183.41;5013772;28;20129;-66
2022/07/27 10:18:41;;;;;;;7.30;1.38;;;;;;;20.47;32.80;101180.56;5014660;28;20050;-64
2022/07/27 10:21:16;;;;;;;4.55;1.15;;;;;;;20.35;32.88;101180.38;5019177;28;20049;-65
2022/07/27 10:24:24;;;;;;;6.07;1.35;;;;;;;20.13;33.45;101177.03;5014058;28;20599;-64
2022/07/27 10:26:52;;;;;;;6.95;1.30;;;;;;;20.24;33.54;101178.28;5016383;28;20045;-65
2022/07/27 10:29:21;;;;;;;5.70;1.30;;;;;;;20.61;32.92;101184.06;5013779;28;20454;-65
2022/07/27 10:31:52;;;;;;;8.43;1.55;;;;;;;20.96;32.24;101183.69;5013363;28;20129;-65
2022/07/27 10:34:36;;;;;;;4.53;1.20;;;;;;;21.03;31.83;101181.78;5014082;28;20080;-65
2022/07/27 10:37:17;;;;;;;7.47;1.02;;;;;;;21.24;31.53;101183.34;5007923;28;20037;-65
2022/07/27 10:39:49;;;;;;;6.78;1.45;;;;;;;21.30;31.63;101182.47;5013370;28;20228;-66
2022/07/27 10:42:34;;;;;;;4.78;1.48;;;;;;;21.46;30.96;101175.63;5012945;28;20062;-66
2022/07/27 10:45:12;;;;;;;8.57;1.50;;;;;;;21.43;30.89;101174.19;5013683;28;20107;-65
2022/07/27 10:47:40;;;;;;;4.28;1.00;;;;;;;21.46;30.78;101164.72;5013182;28;20041;-64
2022/07/27 10:50:16;;;;;;;6.07;1.52;;;;;;;21.42;30.75;101163.50;5012633;28;20112;-65
2022/07/27 10:52:51;;;;;;;5.55;1.40;;;;;;;21.61;30.52;101168.78;5012516;28;20061;-66
2022/07/27 10:55:43;;;;;;;12.70;1.92;;;;;;;21.57;31.13;101164.00;5012911;28;20076;-64
2022/07/27 10:58:09;;;;;;;7.60;1.40;;;;;;;21.75;30.36;101171.41;5014567;28;20053;-65
2022/07/27 11:00:48;;;;;;;5.50;1.20;;;;;;;22.02;30.07;101161.94;5011979;28;20130;-66
2022/07/27 11:03:32;;;;;;;3.65;1.10;;;;;;;21.80;30.03;101161.50;5013965;28;20045;-66
2022/07/27 11:05:59;;;;;;;7.50;1.48;;;;;;;21.69;30.04;101166.84;5013429;28;20069;-65
2022/07/27 11:08:46;;;;;;;4.90;1.48;;;;;;;21.52;30.99;101166.56;5013967;28;20046;-65
2022/07/27 11:11:37;;;;;;;6.28;1.52;;;;;;;21.61;30.22;101167.97;5012761;28;20049;-65
2022/07/27 11:14:03;;;;;;;8.18;1.10;;;;;;;21.92;30.03;101161.63;5013091;28;20403;-65
2022/07/27 11:16:30;;;;;;;11.55;1.23;;;;;;;22.33;28.88;101157.41;5012192;28;20546;-65
2022/07/27 11:19:04;;;;;;;5.80;1.58;;;;;;;22.15;29.71;101160.97;5012899;28;20049;-65
2022/07/27 11:21:34;;;;;;;8.13;2.20;;;;;;;22.00;29.52;101165.97;5012420;28;20476;-66
2022/07/27 11:24:13;;;;;;;9.80;1.60;;;;;;;21.44;32.50;101155.94;5012412;28;20129;-65
2022/07/27 11:26:42;;;;;;;8.10;1.30;;;;;;;21.43;31.92;101159.72;5012176;28;20100;-65
2022/07/27 11:29:11;;;;;;;6.43;1.30;;;;;;;21.57;31.66;101151.19;5012899;28;20432;-65
2022/07/27 11:31:40;;;;;;;16.17;1.90;;;;;;;21.46;32.62;101159.25;5011546;28;20046;-65
2022/07/27 11:34:33;;;;;;;5.72;1.50;;;;;;;21.36;31.65;101155.16;5011228;28;20542;-65
2022/07/27 11:37:01;;;;;;;6.15;1.60;;;;;;;21.33;33.10;101149.28;5011990;28;20073;-65
2022/07/27 11:39:31;;;;;;;15.55;2.10;;;;;;;22.91;29.43;101156.88;5012514;28;20048;-66
2022/07/27 11:42:18;;;;;;;4.10;1.38;;;;;;;21.54;31.31;101159.81;5011985;28;20049;-65